sensor_id;sensor_type;location;lat;lon;timestamp;P1;durP1;ratioP1;P2;durP2;ratioP2
16979;SDS011;42288;52.182;21.156;2023-03-15T00:01:02;13.90;;;7.83;;
16979;SDS011;42288;52.182;21.156;2023-03-15T00:03:32;13.70;;;7.17;;
16979;SDS011;42288;52.182;21.156;2023-03-15T00:06:01;13.07;;;6.73;;
16979;SDS011;42288;52.182;21.156;2023-03-15T00:08:27;16.30;;;8.33;;
16979;SDS011;42288;52.182;21.156;2023-03-15T00:10:53;13.10;;;7.07;;
16979;SDS011;42288;52.182;21.156;2023-03-15T00:13:19;16.20;;;7.83;;
16979;SDS011;42288;52.182;21.156;2023-03-15T00:15:49;12.80;;;6.83;;
16979;SDS011;42288;52.182;21.156;2023-03-15T00:18:17;16.10;;;7.30;;
16979;SDS011;42288;52.182;21.156;2023-03-15T00:20:44;13.10;;;7.43;;
16979;SDS011;42288;52.182;21.156;2023-03-15T00:23:11;13.20;;;7.20;;
16979;SDS011;42288;52.182;21.156;2023-03-15T00:25:37;12.60;;;6.93;;
16979;SDS011;42288;52.182;21.156;2023-03-15T00:28:03;11.77;;;7.07;;
16979;SDS011;42288;52.182;21.156;2023-03-15T00:30:28;18.70;;;7.90;;
16979;SDS011;42288;52.182;21.156;2023-03-15T00:32:54;12.60;;;7.30;;
16979;SDS011;42288;52.182;21.156;2023-03-15T00:35:20;14.30;;;7.17;;
16979;SDS011;42288;52.182;21.156;2023-03-15T00:37:48;14.13;;;7.37;;
16979;SDS011;42288;52.182;21.156;2023-03-15T00:40:14;13.73;;;7.23;;
16979;SDS011;42288;52.182;21.156;2023-03-15T00:42:39;12.90;;;7.00;;
16979;SDS011;42288;52.182;21.156;2023-03-15T00:45:05;15.23;;;7.90;;
16979;SDS011;42288;52.182;21.156;2023-03-15T00:47:31;12.73;;;7.50;;
16979;SDS011;42288;52.182;21.156;2023-03-15T00:49:57;17.67;;;7.73;;
16979;SDS011;42288;52.182;21.156;2023-03-15T00:52:23;12.03;;;7.17;;
16979;SDS011;42288;52.182;21.156;2023-03-15T00:54:53;12.30;;;7.17;;
16979;SDS011;42288;52.182;21.156;2023-03-15T00:57:19;14.17;;;7.63;;
16979;SDS011;42288;52.182;21.156;2023-03-15T00:59:45;14.37;;;7.87;;
16979;SDS011;42288;52.182;21.156;2023-03-15T01:02:11;12.10;;;6.73;;
16979;SDS011;42288;52.182;21.156;2023-03-15T01:04:37;7.73;;;4.50;;
16979;SDS011;42288;52.182;21.156;2023-03-15T01:07:03;5.17;;;3.00;;
16979;SDS011;42288;52.182;21.156;2023-03-15T01:09:29;5.53;;;2.07;;
16979;SDS011;42288;52.182;21.156;2023-03-15T01:11:55;3.23;;;1.80;;
16979;SDS011;42288;52.182;21.156;2023-03-15T01:14:24;3.40;;;2.20;;
16979;SDS011;42288;52.182;21.156;2023-03-15T01:16:50;3.70;;;1.53;;
16979;SDS011;42288;52.182;21.156;2023-03-15T01:19:15;3.00;;;1.43;;
16979;SDS011;42288;52.182;21.156;2023-03-15T01:21:41;4.23;;;1.43;;
16979;SDS011;42288;52.182;21.156;2023-03-15T01:24:10;2.30;;;1.03;;
16979;SDS011;42288;52.182;21.156;2023-03-15T01:26:37;4.60;;;1.23;;
16979;SDS011;42288;52.182;21.156;2023-03-15T01:29:03;2.20;;;1.40;;
16979;SDS011;42288;52.182;21.156;2023-03-15T01:31:29;2.03;;;1.20;;
16979;SDS011;42288;52.182;21.156;2023-03-15T01:33:55;2.30;;;1.40;;
16979;SDS011;42288;52.182;21.156;2023-03-15T01:36:22;2.60;;;1.63;;
16979;SDS011;42288;52.182;21.156;2023-03-15T01:38:48;3.53;;;1.90;;
16979;SDS011;42288;52.182;21.156;2023-03-15T01:41:14;2.70;;;1.63;;
16979;SDS011;42288;52.182;21.156;2023-03-15T01:43:41;4.07;;;1.73;;
16979;SDS011;42288;52.182;21.156;2023-03-15T01:51:33;2.63;;;1.67;;
16979;SDS011;42288;52.182;21.156;2023-03-15T01:56:34;2.43;;;1.83;;
16979;SDS011;42288;52.182;21.156;2023-03-15T01:59:04;2.83;;;1.97;;
16979;SDS011;42288;52.182;21.156;2023-03-15T02:01:35;3.30;;;1.97;;
16979;SDS011;42288;52.182;21.156;2023-03-15T02:04:09;2.63;;;1.83;;
16979;SDS011;42288;52.182;21.156;2023-03-15T02:06:41;3.77;;;2.00;;
16979;SDS011;42288;52.182;21.156;2023-03-15T02:09:10;4.20;;;2.47;;
16979;SDS011;42288;52.182;21.156;2023-03-15T02:11:39;5.80;;;2.70;;
16979;SDS011;42288;52.182;21.156;2023-03-15T02:14:06;3.97;;;2.70;;
16979;SDS011;42288;52.182;21.156;2023-03-15T02:16:35;3.20;;;2.30;;
16979;SDS011;42288;52.182;21.156;2023-03-15T02:19:01;5.20;;;2.80;;
16979;SDS011;42288;52.182;21.156;2023-03-15T02:24:45;6.60;;;2.33;;
16979;SDS011;42288;52.182;21.156;2023-03-15T02:27:29;3.73;;;2.13;;
16979;SDS011;42288;52.182;21.156;2023-03-15T02:29:58;5.70;;;2.00;;
16979;SDS011;42288;52.182;21.156;2023-03-15T02:32:27;2.80;;;1.70;;
16979;SDS011;42288;52.182;21.156;2023-03-15T02:34:53;2.63;;;1.63;;
16979;SDS011;42288;52.182;21.156;2023-03-15T02:37:19;2.90;;;1.47;;
16979;SDS011;42288;52.182;21.156;2023-03-15T02:39:45;3.67;;;1.50;;
16979;SDS011;42288;52.182;21.156;2023-03-15T02:42:11;4.53;;;1.70;;
16979;SDS011;42288;52.182;21.156;2023-03-15T02:44:38;3.03;;;1.50;;
16979;SDS011;42288;52.182;21.156;2023-03-15T02:47:07;6.10;;;1.27;;
16979;SDS011;42288;52.182;21.156;2023-03-15T02:49:38;5.43;;;1.50;;
16979;SDS011;42288;52.182;21.156;2023-03-15T02:52:07;6.93;;;1.53;;
16979;SDS011;42288;52.182;21.156;2023-03-15T02:54:33;2.53;;;1.20;;
16979;SDS011;42288;52.182;21.156;2023-03-15T02:57:02;6.33;;;1.40;;
16979;SDS011;42288;52.182;21.156;2023-03-15T02:59:28;6.03;;;1.43;;
16979;SDS011;42288;52.182;21.156;2023-03-15T03:01:53;5.93;;;1.57;;
16979;SDS011;42288;52.182;21.156;2023-03-15T03:04:19;6.63;;;1.63;;
16979;SDS011;42288;52.182;21.156;2023-03-15T03:06:45;5.87;;;1.57;;
16979;SDS011;42288;52.182;21.156;2023-03-15T03:09:10;4.47;;;1.90;;
16979;SDS011;42288;52.182;21.156;2023-03-15T03:11:36;3.67;;;1.70;;
16979;SDS011;42288;52.182;21.156;2023-03-15T03:14:03;4.93;;;1.70;;
16979;SDS011;42288;52.182;21.156;2023-03-15T03:16:29;6.83;;;1.37;;
16979;SDS011;42288;52.182;21.156;2023-03-15T03:18:56;5.53;;;1.40;;
16979;SDS011;42288;52.182;21.156;2023-03-15T03:21:21;6.03;;;1.60;;
16979;SDS011;42288;52.182;21.156;2023-03-15T03:23:47;4.80;;;1.43;;
16979;SDS011;42288;52.182;21.156;2023-03-15T03:26:13;4.30;;;1.30;;
16979;SDS011;42288;52.182;21.156;2023-03-15T03:28:41;5.63;;;1.43;;
16979;SDS011;42288;52.182;21.156;2023-03-15T03:31:14;5.87;;;1.53;;
16979;SDS011;42288;52.182;21.156;2023-03-15T03:33:48;7.13;;;1.30;;
16979;SDS011;42288;52.182;21.156;2023-03-15T03:36:14;7.83;;;1.50;;
16979;SDS011;42288;52.182;21.156;2023-03-15T03:38:40;7.67;;;2.27;;
16979;SDS011;42288;52.182;21.156;2023-03-15T03:41:08;5.33;;;1.40;;
16979;SDS011;42288;52.182;21.156;2023-03-15T03:43:34;2.47;;;1.30;;
16979;SDS011;42288;52.182;21.156;2023-03-15T03:46:00;5.13;;;1.67;;
16979;SDS011;42288;52.182;21.156;2023-03-15T03:48:26;2.87;;;1.40;;
16979;SDS011;42288;52.182;21.156;2023-03-15T03:50:51;5.53;;;2.00;;
16979;SDS011;42288;52.182;21.156;2023-03-15T03:53:17;5.07;;;1.43;;
16979;SDS011;42288;52.182;21.156;2023-03-15T03:55:43;7.87;;;1.53;;
16979;SDS011;42288;52.182;21.156;2023-03-15T03:58:10;6.57;;;1.80;;
16979;SDS011;42288;52.182;21.156;2023-03-15T04:00:36;6.77;;;1.90;;
16979;SDS011;42288;52.182;21.156;2023-03-15T04:03:01;5.77;;;1.77;;
16979;SDS011;42288;52.182;21.156;2023-03-15T04:05:27;4.70;;;2.10;;
16979;SDS011;42288;52.182;21.156;2023-03-15T04:07:53;7.43;;;2.10;;
16979;SDS011;42288;52.182;21.156;2023-03-15T04:10:19;5.03;;;1.80;;
16979;SDS011;42288;52.182;21.156;2023-03-15T04:12:51;5.67;;;1.80;;
16979;SDS011;42288;52.182;21.156;2023-03-15T04:15:17;3.13;;;1.80;;
16979;SDS011;42288;52.182;21.156;2023-03-15T04:17:43;5.07;;;2.00;;
16979;SDS011;42288;52.182;21.156;2023-03-15T04:20:08;5.17;;;2.10;;
16979;SDS011;42288;52.182;21.156;2023-03-15T04:22:37;5.83;;;2.00;;
16979;SDS011;42288;52.182;21.156;2023-03-15T04:25:03;8.60;;;2.60;;
16979;SDS011;42288;52.182;21.156;2023-03-15T04:27:29;5.53;;;2.53;;
16979;SDS011;42288;52.182;21.156;2023-03-15T04:29:55;3.73;;;2.30;;
16979;SDS011;42288;52.182;21.156;2023-03-15T04:32:21;6.67;;;3.00;;
16979;SDS011;42288;52.182;21.156;2023-03-15T04:34:47;4.87;;;2.37;;
16979;SDS011;42288;52.182;21.156;2023-03-15T04:37:15;6.90;;;2.60;;
16979;SDS011;42288;52.182;21.156;2023-03-15T04:39:42;5.90;;;2.50;;
16979;SDS011;42288;52.182;21.156;2023-03-15T04:42:08;10.73;;;3.43;;
16979;SDS011;42288;52.182;21.156;2023-03-15T04:44:34;9.00;;;3.97;;
16979;SDS011;42288;52.182;21.156;2023-03-15T04:46:59;8.80;;;2.80;;
16979;SDS011;42288;52.182;21.156;2023-03-15T04:49:25;7.67;;;3.30;;
16979;SDS011;42288;52.182;21.156;2023-03-15T04:51:50;4.93;;;2.63;;
16979;SDS011;42288;52.182;21.156;2023-03-15T04:54:16;6.07;;;2.90;;
16979;SDS011;42288;52.182;21.156;2023-03-15T04:56:42;8.83;;;2.90;;
16979;SDS011;42288;52.182;21.156;2023-03-15T04:59:07;8.30;;;3.00;;
16979;SDS011;42288;52.182;21.156;2023-03-15T05:01:35;7.73;;;2.60;;
16979;SDS011;42288;52.182;21.156;2023-03-15T05:04:01;6.93;;;2.27;;
16979;SDS011;42288;52.182;21.156;2023-03-15T05:06:26;6.57;;;2.60;;
16979;SDS011;42288;52.182;21.156;2023-03-15T05:08:53;7.23;;;2.80;;
16979;SDS011;42288;52.182;21.156;2023-03-15T05:11:19;5.53;;;2.30;;
16979;SDS011;42288;52.182;21.156;2023-03-15T05:13:44;9.30;;;2.90;;
16979;SDS011;42288;52.182;21.156;2023-03-15T05:16:10;9.87;;;2.60;;
16979;SDS011;42288;52.182;21.156;2023-03-15T05:18:36;9.67;;;2.60;;
16979;SDS011;42288;52.182;21.156;2023-03-15T05:21:02;4.30;;;2.40;;
16979;SDS011;42288;52.182;21.156;2023-03-15T05:23:30;11.30;;;2.87;;
16979;SDS011;42288;52.182;21.156;2023-03-15T05:25:57;5.33;;;2.67;;
16979;SDS011;42288;52.182;21.156;2023-03-15T05:28:24;8.67;;;2.80;;
16979;SDS011;42288;52.182;21.156;2023-03-15T05:30:51;8.70;;;2.70;;
16979;SDS011;42288;52.182;21.156;2023-03-15T05:33:17;12.03;;;2.80;;
16979;SDS011;42288;52.182;21.156;2023-03-15T05:35:43;6.47;;;2.70;;
16979;SDS011;42288;52.182;21.156;2023-03-15T05:38:10;6.37;;;3.00;;
16979;SDS011;42288;52.182;21.156;2023-03-15T05:40:43;12.13;;;3.03;;
16979;SDS011;42288;52.182;21.156;2023-03-15T05:43:10;11.03;;;3.00;;
16979;SDS011;42288;52.182;21.156;2023-03-15T05:45:37;7.43;;;3.13;;
16979;SDS011;42288;52.182;21.156;2023-03-15T05:48:03;9.83;;;3.07;;
16979;SDS011;42288;52.182;21.156;2023-03-15T05:50:29;10.00;;;3.53;;
16979;SDS011;42288;52.182;21.156;2023-03-15T05:52:55;12.17;;;3.80;;
16979;SDS011;42288;52.182;21.156;2023-03-15T05:55:21;8.83;;;3.40;;
16979;SDS011;42288;52.182;21.156;2023-03-15T05:57:48;10.87;;;3.60;;
16979;SDS011;42288;52.182;21.156;2023-03-15T06:00:13;14.63;;;3.97;;
16979;SDS011;42288;52.182;21.156;2023-03-15T06:02:43;11.43;;;3.57;;
16979;SDS011;42288;52.182;21.156;2023-03-15T06:05:10;8.30;;;3.63;;
16979;SDS011;42288;52.182;21.156;2023-03-15T06:07:36;8.30;;;3.90;;
16979;SDS011;42288;52.182;21.156;2023-03-15T06:10:02;8.90;;;3.40;;
16979;SDS011;42288;52.182;21.156;2023-03-15T06:12:28;13.63;;;4.60;;
16979;SDS011;42288;52.182;21.156;2023-03-15T06:14:54;13.03;;;4.27;;
16979;SDS011;42288;52.182;21.156;2023-03-15T06:17:19;8.20;;;3.53;;
16979;SDS011;42288;52.182;21.156;2023-03-15T06:19:45;10.33;;;4.20;;
16979;SDS011;42288;52.182;21.156;2023-03-15T06:22:11;13.47;;;4.67;;
16979;SDS011;42288;52.182;21.156;2023-03-15T06:24:37;8.93;;;4.50;;
16979;SDS011;42288;52.182;21.156;2023-03-15T06:27:03;12.90;;;4.63;;
16979;SDS011;42288;52.182;21.156;2023-03-15T06:29:28;9.63;;;4.77;;
16979;SDS011;42288;52.182;21.156;2023-03-15T06:31:54;10.37;;;4.90;;
16979;SDS011;42288;52.182;21.156;2023-03-15T06:34:20;13.10;;;4.97;;
16979;SDS011;42288;52.182;21.156;2023-03-15T06:36:45;11.23;;;4.17;;
16979;SDS011;42288;52.182;21.156;2023-03-15T06:39:13;13.00;;;5.60;;
16979;SDS011;42288;52.182;21.156;2023-03-15T06:41:39;12.13;;;4.73;;
16979;SDS011;42288;52.182;21.156;2023-03-15T06:44:07;13.07;;;5.03;;
16979;SDS011;42288;52.182;21.156;2023-03-15T06:46:34;13.70;;;4.50;;
16979;SDS011;42288;52.182;21.156;2023-03-15T06:49:00;11.63;;;4.77;;
16979;SDS011;42288;52.182;21.156;2023-03-15T06:51:25;18.07;;;5.53;;
16979;SDS011;42288;52.182;21.156;2023-03-15T06:53:51;12.50;;;5.77;;
16979;SDS011;42288;52.182;21.156;2023-03-15T06:56:17;15.47;;;3.80;;
16979;SDS011;42288;52.182;21.156;2023-03-15T06:58:42;10.40;;;4.80;;
16979;SDS011;42288;52.182;21.156;2023-03-15T07:01:10;14.53;;;4.70;;
16979;SDS011;42288;52.182;21.156;2023-03-15T07:03:37;12.50;;;5.10;;
16979;SDS011;42288;52.182;21.156;2023-03-15T07:06:03;8.90;;;4.20;;
16979;SDS011;42288;52.182;21.156;2023-03-15T07:08:29;16.10;;;5.03;;
16979;SDS011;42288;52.182;21.156;2023-03-15T07:10:55;9.67;;;4.47;;
16979;SDS011;42288;52.182;21.156;2023-03-15T07:13:21;11.60;;;5.07;;
16979;SDS011;42288;52.182;21.156;2023-03-15T07:15:51;14.07;;;5.67;;
16979;SDS011;42288;52.182;21.156;2023-03-15T07:18:17;12.87;;;5.60;;
16979;SDS011;42288;52.182;21.156;2023-03-15T07:20:43;16.57;;;7.00;;
16979;SDS011;42288;52.182;21.156;2023-03-15T07:23:09;10.93;;;5.30;;
16979;SDS011;42288;52.182;21.156;2023-03-15T07:25:34;20.67;;;6.17;;
16979;SDS011;42288;52.182;21.156;2023-03-15T07:28:00;15.53;;;5.30;;
16979;SDS011;42288;52.182;21.156;2023-03-15T07:30:25;14.63;;;5.53;;
16979;SDS011;42288;52.182;21.156;2023-03-15T07:32:51;11.97;;;5.60;;
16979;SDS011;42288;52.182;21.156;2023-03-15T07:35:17;14.07;;;5.67;;
16979;SDS011;42288;52.182;21.156;2023-03-15T07:37:43;11.17;;;5.27;;
16979;SDS011;42288;52.182;21.156;2023-03-15T07:40:08;14.73;;;5.73;;
16979;SDS011;42288;52.182;21.156;2023-03-15T07:42:35;10.57;;;5.83;;
16979;SDS011;42288;52.182;21.156;2023-03-15T07:45:02;18.20;;;6.20;;
16979;SDS011;42288;52.182;21.156;2023-03-15T07:47:28;11.37;;;5.50;;
16979;SDS011;42288;52.182;21.156;2023-03-15T07:49:54;12.53;;;5.40;;
16979;SDS011;42288;52.182;21.156;2023-03-15T07:52:20;10.90;;;5.47;;
16979;SDS011;42288;52.182;21.156;2023-03-15T07:54:46;12.00;;;5.63;;
16979;SDS011;42288;52.182;21.156;2023-03-15T07:57:12;11.17;;;5.30;;
16979;SDS011;42288;52.182;21.156;2023-03-15T07:59:37;16.27;;;6.23;;
16979;SDS011;42288;52.182;21.156;2023-03-15T08:02:03;16.07;;;5.63;;
16979;SDS011;42288;52.182;21.156;2023-03-15T08:04:29;20.60;;;6.30;;
16979;SDS011;42288;52.182;21.156;2023-03-15T08:06:55;14.83;;;6.50;;
16979;SDS011;42288;52.182;21.156;2023-03-15T08:09:21;17.83;;;7.13;;
16979;SDS011;42288;52.182;21.156;2023-03-15T08:11:47;17.97;;;6.73;;
16979;SDS011;42288;52.182;21.156;2023-03-15T08:14:13;17.03;;;7.27;;
16979;SDS011;42288;52.182;21.156;2023-03-15T08:16:39;15.10;;;6.93;;
16979;SDS011;42288;52.182;21.156;2023-03-15T08:19:04;16.43;;;7.43;;
16979;SDS011;42288;52.182;21.156;2023-03-15T08:21:30;15.20;;;7.43;;
16979;SDS011;42288;52.182;21.156;2023-03-15T08:23:57;14.93;;;6.67;;
16979;SDS011;42288;52.182;21.156;2023-03-15T08:26:23;16.13;;;6.80;;
16979;SDS011;42288;52.182;21.156;2023-03-15T08:28:49;18.37;;;7.03;;
16979;SDS011;42288;52.182;21.156;2023-03-15T08:31:15;15.27;;;7.47;;
16979;SDS011;42288;52.182;21.156;2023-03-15T08:33:41;15.30;;;6.93;;
16979;SDS011;42288;52.182;21.156;2023-03-15T08:36:07;14.27;;;6.73;;
16979;SDS011;42288;52.182;21.156;2023-03-15T08:38:33;14.70;;;6.03;;
16979;SDS011;42288;52.182;21.156;2023-03-15T08:40:59;8.80;;;5.37;;
16979;SDS011;42288;52.182;21.156;2023-03-15T08:43:24;14.23;;;6.47;;
16979;SDS011;42288;52.182;21.156;2023-03-15T08:45:50;16.40;;;7.40;;
16979;SDS011;42288;52.182;21.156;2023-03-15T08:48:16;18.13;;;7.53;;
16979;SDS011;42288;52.182;21.156;2023-03-15T08:50:42;12.20;;;6.33;;
16979;SDS011;42288;52.182;21.156;2023-03-15T08:53:08;14.03;;;6.43;;
16979;SDS011;42288;52.182;21.156;2023-03-15T08:55:35;12.77;;;5.87;;
16979;SDS011;42288;52.182;21.156;2023-03-15T08:58:02;11.90;;;5.83;;
16979;SDS011;42288;52.182;21.156;2023-03-15T09:00:28;17.30;;;5.97;;
16979;SDS011;42288;52.182;21.156;2023-03-15T09:02:54;13.23;;;5.63;;
16979;SDS011;42288;52.182;21.156;2023-03-15T09:05:20;12.93;;;5.87;;
16979;SDS011;42288;52.182;21.156;2023-03-15T09:07:47;11.43;;;4.80;;
16979;SDS011;42288;52.182;21.156;2023-03-15T09:10:13;13.07;;;6.00;;
16979;SDS011;42288;52.182;21.156;2023-03-15T09:12:41;15.90;;;6.30;;
16979;SDS011;42288;52.182;21.156;2023-03-15T09:15:07;13.83;;;5.90;;
16979;SDS011;42288;52.182;21.156;2023-03-15T09:17:34;10.13;;;5.60;;
16979;SDS011;42288;52.182;21.156;2023-03-15T09:20:00;12.07;;;5.80;;
16979;SDS011;42288;52.182;21.156;2023-03-15T09:22:25;14.47;;;5.47;;
16979;SDS011;42288;52.182;21.156;2023-03-15T09:24:51;13.23;;;6.10;;
16979;SDS011;42288;52.182;21.156;2023-03-15T09:27:17;12.53;;;4.90;;
16979;SDS011;42288;52.182;21.156;2023-03-15T09:29:42;10.83;;;5.30;;
16979;SDS011;42288;52.182;21.156;2023-03-15T09:32:08;12.20;;;5.50;;
16979;SDS011;42288;52.182;21.156;2023-03-15T09:34:35;9.23;;;4.53;;
16979;SDS011;42288;52.182;21.156;2023-03-15T09:37:01;11.93;;;3.70;;
16979;SDS011;42288;52.182;21.156;2023-03-15T09:39:27;11.17;;;4.63;;
16979;SDS011;42288;52.182;21.156;2023-03-15T09:41:54;12.43;;;5.77;;
16979;SDS011;42288;52.182;21.156;2023-03-15T09:44:27;11.77;;;4.83;;
16979;SDS011;42288;52.182;21.156;2023-03-15T09:47:08;11.70;;;5.10;;
16979;SDS011;42288;52.182;21.156;2023-03-15T09:55:14;10.87;;;3.83;;
16979;SDS011;42288;52.182;21.156;2023-03-15T09:58:18;7.87;;;3.17;;
16979;SDS011;42288;52.182;21.156;2023-03-15T10:00:48;13.13;;;4.07;;
16979;SDS011;42288;52.182;21.156;2023-03-15T10:06:19;13.80;;;3.90;;
16979;SDS011;42288;52.182;21.156;2023-03-15T10:08:46;9.83;;;4.30;;
16979;SDS011;42288;52.182;21.156;2023-03-15T10:16:47;12.47;;;3.93;;
16979;SDS011;42288;52.182;21.156;2023-03-15T10:19:24;8.13;;;3.47;;
16979;SDS011;42288;52.182;21.156;2023-03-15T10:27:24;14.10;;;3.60;;
16979;SDS011;42288;52.182;21.156;2023-03-15T10:29:54;10.70;;;3.30;;
16979;SDS011;42288;52.182;21.156;2023-03-15T10:32:23;12.33;;;3.30;;
16979;SDS011;42288;52.182;21.156;2023-03-15T10:34:52;7.00;;;3.60;;
16979;SDS011;42288;52.182;21.156;2023-03-15T10:37:21;14.30;;;3.30;;
16979;SDS011;42288;52.182;21.156;2023-03-15T10:39:48;7.13;;;3.20;;
16979;SDS011;42288;52.182;21.156;2023-03-15T10:42:29;13.57;;;4.20;;
16979;SDS011;42288;52.182;21.156;2023-03-15T10:44:57;11.10;;;3.50;;
16979;SDS011;42288;52.182;21.156;2023-03-15T10:47:24;10.13;;;3.73;;
16979;SDS011;42288;52.182;21.156;2023-03-15T10:49:55;9.70;;;3.23;;
16979;SDS011;42288;52.182;21.156;2023-03-15T10:52:32;12.93;;;3.57;;
16979;SDS011;42288;52.182;21.156;2023-03-15T10:55:04;12.93;;;3.67;;
16979;SDS011;42288;52.182;21.156;2023-03-15T10:57:37;11.57;;;3.80;;
16979;SDS011;42288;52.182;21.156;2023-03-15T11:05:46;10.47;;;4.07;;
16979;SDS011;42288;52.182;21.156;2023-03-15T11:08:15;12.90;;;3.70;;
16979;SDS011;42288;52.182;21.156;2023-03-15T11:10:43;15.53;;;4.13;;
16979;SDS011;42288;52.182;21.156;2023-03-15T11:15:36;10.07;;;3.93;;
16979;SDS011;42288;52.182;21.156;2023-03-15T11:18:02;11.70;;;3.80;;
16979;SDS011;42288;52.182;21.156;2023-03-15T11:20:33;10.10;;;3.67;;
16979;SDS011;42288;52.182;21.156;2023-03-15T11:23:05;13.10;;;3.87;;
16979;SDS011;42288;52.182;21.156;2023-03-15T11:25:47;9.60;;;3.40;;
16979;SDS011;42288;52.182;21.156;2023-03-15T11:28:17;13.47;;;3.80;;
16979;SDS011;42288;52.182;21.156;2023-03-15T11:30:46;7.57;;;3.57;;
16979;SDS011;42288;52.182;21.156;2023-03-15T11:36:14;12.27;;;3.63;;
16979;SDS011;42288;52.182;21.156;2023-03-15T11:38:46;11.47;;;3.90;;
16979;SDS011;42288;52.182;21.156;2023-03-15T11:41:17;10.53;;;3.70;;
16979;SDS011;42288;52.182;21.156;2023-03-15T11:51:55;12.53;;;3.50;;
16979;SDS011;42288;52.182;21.156;2023-03-15T11:54:21;9.40;;;3.57;;
16979;SDS011;42288;52.182;21.156;2023-03-15T11:56:56;12.87;;;3.70;;
16979;SDS011;42288;52.182;21.156;2023-03-15T11:59:36;9.23;;;3.77;;
16979;SDS011;42288;52.182;21.156;2023-03-15T12:07:01;8.73;;;4.00;;
16979;SDS011;42288;52.182;21.156;2023-03-15T12:09:40;9.63;;;3.77;;
16979;SDS011;42288;52.182;21.156;2023-03-15T12:24:04;10.83;;;4.00;;
16979;SDS011;42288;52.182;21.156;2023-03-15T12:26:05;8.67;;;4.07;;
16979;SDS011;42288;52.182;21.156;2023-03-15T12:31:24;15.33;;;4.43;;
16979;SDS011;42288;52.182;21.156;2023-03-15T12:33:53;10.30;;;4.23;;
16979;SDS011;42288;52.182;21.156;2023-03-15T12:36:36;17.10;;;4.93;;
16979;SDS011;42288;52.182;21.156;2023-03-15T12:41:39;13.70;;;4.77;;
16979;SDS011;42288;52.182;21.156;2023-03-15T12:51:53;10.07;;;4.27;;
16979;SDS011;42288;52.182;21.156;2023-03-15T12:54:36;11.30;;;4.50;;
16979;SDS011;42288;52.182;21.156;2023-03-15T12:57:10;8.00;;;4.30;;
16979;SDS011;42288;52.182;21.156;2023-03-15T12:59:39;12.67;;;3.80;;
16979;SDS011;42288;52.182;21.156;2023-03-15T13:05:00;10.70;;;4.20;;
16979;SDS011;42288;52.182;21.156;2023-03-15T13:18:18;9.57;;;4.20;;
16979;SDS011;42288;52.182;21.156;2023-03-15T13:23:31;9.73;;;3.73;;
16979;SDS011;42288;52.182;21.156;2023-03-15T13:29:02;13.93;;;4.27;;
16979;SDS011;42288;52.182;21.156;2023-03-15T13:31:38;7.73;;;4.03;;
16979;SDS011;42288;52.182;21.156;2023-03-15T13:36:40;11.73;;;4.33;;
16979;SDS011;42288;52.182;21.156;2023-03-15T13:39:16;9.77;;;4.13;;
16979;SDS011;42288;52.182;21.156;2023-03-15T13:41:43;11.83;;;4.80;;
16979;SDS011;42288;52.182;21.156;2023-03-15T13:44:19;11.23;;;4.43;;
16979;SDS011;42288;52.182;21.156;2023-03-15T13:46:49;15.07;;;5.20;;
16979;SDS011;42288;52.182;21.156;2023-03-15T13:49:16;12.23;;;5.10;;
16979;SDS011;42288;52.182;21.156;2023-03-15T13:51:42;11.20;;;4.93;;
16979;SDS011;42288;52.182;21.156;2023-03-15T13:54:19;10.30;;;5.10;;
16979;SDS011;42288;52.182;21.156;2023-03-15T13:57:06;10.67;;;4.70;;
16979;SDS011;42288;52.182;21.156;2023-03-15T13:59:43;8.17;;;4.70;;
16979;SDS011;42288;52.182;21.156;2023-03-15T14:02:33;14.13;;;4.70;;
16979;SDS011;42288;52.182;21.156;2023-03-15T14:05:06;8.70;;;4.30;;
16979;SDS011;42288;52.182;21.156;2023-03-15T14:07:35;9.77;;;3.73;;
16979;SDS011;42288;52.182;21.156;2023-03-15T14:12:33;8.23;;;5.37;;
16979;SDS011;42288;52.182;21.156;2023-03-15T14:14:58;6.60;;;2.60;;
16979;SDS011;42288;52.182;21.156;2023-03-15T14:17:28;10.50;;;3.47;;
16979;SDS011;42288;52.182;21.156;2023-03-15T14:20:14;8.50;;;3.00;;
16979;SDS011;42288;52.182;21.156;2023-03-15T14:22:40;10.60;;;3.60;;
16979;SDS011;42288;52.182;21.156;2023-03-15T14:25:21;10.73;;;4.17;;
16979;SDS011;42288;52.182;21.156;2023-03-15T14:27:48;6.33;;;3.07;;
16979;SDS011;42288;52.182;21.156;2023-03-15T14:30:21;7.83;;;2.67;;
16979;SDS011;42288;52.182;21.156;2023-03-15T14:32:50;9.73;;;3.63;;
16979;SDS011;42288;52.182;21.156;2023-03-15T14:35:28;8.67;;;3.00;;
16979;SDS011;42288;52.182;21.156;2023-03-15T14:38:29;7.83;;;3.70;;
16979;SDS011;42288;52.182;21.156;2023-03-15T14:40:49;10.20;;;3.37;;
16979;SDS011;42288;52.182;21.156;2023-03-15T14:43:15;7.30;;;3.17;;
16979;SDS011;42288;52.182;21.156;2023-03-15T14:45:42;9.97;;;4.33;;
16979;SDS011;42288;52.182;21.156;2023-03-15T14:48:11;15.00;;;4.93;;
16979;SDS011;42288;52.182;21.156;2023-03-15T14:50:54;10.73;;;4.90;;
16979;SDS011;42288;52.182;21.156;2023-03-15T14:53:21;11.77;;;4.40;;
16979;SDS011;42288;52.182;21.156;2023-03-15T14:55:48;14.47;;;4.50;;
16979;SDS011;42288;52.182;21.156;2023-03-15T14:58:15;10.23;;;4.30;;
16979;SDS011;42288;52.182;21.156;2023-03-15T15:00:43;9.67;;;4.23;;
16979;SDS011;42288;52.182;21.156;2023-03-15T15:03:34;9.13;;;4.10;;
16979;SDS011;42288;52.182;21.156;2023-03-15T15:06:02;9.40;;;4.40;;
16979;SDS011;42288;52.182;21.156;2023-03-15T15:08:31;7.00;;;4.27;;
16979;SDS011;42288;52.182;21.156;2023-03-15T15:10:57;10.33;;;4.30;;
16979;SDS011;42288;52.182;21.156;2023-03-15T15:13:24;12.33;;;4.60;;
16979;SDS011;42288;52.182;21.156;2023-03-15T15:15:52;12.33;;;5.27;;
16979;SDS011;42288;52.182;21.156;2023-03-15T15:18:19;14.43;;;5.93;;
16979;SDS011;42288;52.182;21.156;2023-03-15T15:20:44;14.53;;;4.97;;
16979;SDS011;42288;52.182;21.156;2023-03-15T15:23:11;12.60;;;4.60;;
16979;SDS011;42288;52.182;21.156;2023-03-15T15:25:42;18.53;;;5.83;;
16979;SDS011;42288;52.182;21.156;2023-03-15T15:28:08;14.17;;;5.50;;
16979;SDS011;42288;52.182;21.156;2023-03-15T15:30:35;9.57;;;4.47;;
16979;SDS011;42288;52.182;21.156;2023-03-15T15:33:01;15.93;;;6.00;;
16979;SDS011;42288;52.182;21.156;2023-03-15T15:35:27;10.90;;;4.40;;
16979;SDS011;42288;52.182;21.156;2023-03-15T15:37:53;6.00;;;3.40;;
16979;SDS011;42288;52.182;21.156;2023-03-15T15:40:20;7.40;;;3.53;;
16979;SDS011;42288;52.182;21.156;2023-03-15T15:42:50;8.50;;;3.00;;
16979;SDS011;42288;52.182;21.156;2023-03-15T15:45:16;7.90;;;4.40;;
16979;SDS011;42288;52.182;21.156;2023-03-15T15:47:43;9.47;;;3.60;;
16979;SDS011;42288;52.182;21.156;2023-03-15T15:50:13;8.87;;;3.17;;
16979;SDS011;42288;52.182;21.156;2023-03-15T15:52:40;9.73;;;3.50;;
16979;SDS011;42288;52.182;21.156;2023-03-15T15:57:37;10.43;;;3.03;;
16979;SDS011;42288;52.182;21.156;2023-03-15T16:00:07;7.43;;;3.40;;
16979;SDS011;42288;52.182;21.156;2023-03-15T16:02:40;11.80;;;4.20;;
16979;SDS011;42288;52.182;21.156;2023-03-15T16:05:06;10.20;;;4.03;;
16979;SDS011;42288;52.182;21.156;2023-03-15T16:07:33;9.37;;;3.43;;
16979;SDS011;42288;52.182;21.156;2023-03-15T16:09:59;19.03;;;4.13;;
16979;SDS011;42288;52.182;21.156;2023-03-15T16:12:25;8.07;;;3.90;;
16979;SDS011;42288;52.182;21.156;2023-03-15T16:14:52;8.73;;;4.13;;
16979;SDS011;42288;52.182;21.156;2023-03-15T16:17:21;13.33;;;4.77;;
16979;SDS011;42288;52.182;21.156;2023-03-15T16:19:48;10.27;;;4.30;;